Time;durP1;ratioP1;P1;durP2;ratioP2;P2;SDS_P1;SDS_P2;PMS_P1;PMS_P2;Temp;Humidity;BMP_temperature;BMP_pressure;BME280_temperature;BME280_humidity;BME280_pressure;Samples;Min_cycle;Max_cycle;Signal;HPM_P1;HPM_P2
2023/12/07 00:02:16;;;;;;;11.27;5.53;;;;;;;;;;5107147;27;20050;-66
2023/12/07 00:04:42;;;;;;;6.05;4.53;;;;;;;;;;5108383;28;20039;-66
2023/12/07 00:07:08;;;;;;;7.60;4.47;;;;;;;;;;5107740;28;20392;-66
2023/12/07 00:09:34;;;;;;;6.88;4.72;;;;;;;;;;5109298;27;20637;-66
2023/12/07 00:12:00;;;;;;;5.70;4.10;;;;;;;;;;5109216;27;20042;-66
2023/12/07 00:14:26;;;;;;;6.43;5.28;;;;;;;;;;5089775;28;20402;-67
2023/12/07 00:16:53;;;;;;;6.40;4.05;;;;;;;;;;5088109;27;20035;-67
2023/12/07 00:19:20;;;;;;;6.40;4.90;;;;;;;;;;5109054;27;20070;-67
2023/12/07 00:21:46;;;;;;;9.65;4.60;;;;;;;;;;5108204;28;20118;-67
2023/12/07 00:24:12;;;;;;;8.65;5.18;;;;;;;;;;5107661;28;20054;-67
2023/12/07 00:26:38;;;;;;;4.82;4.05;;;;;;;;;;5109475;28;20077;-67
2023/12/07 00:29:04;;;;;;;6.75;4.25;;;;;;;;;;5108774;28;20205;-65
2023/12/07 00:31:30;;;;;;;6.35;4.35;;;;;;;;;;5110265;27;20301;-67
2023/12/07 00:33:56;;;;;;;5.43;4.22;;;;;;;;;;5111704;27;20031;-65
2023/12/07 00:36:23;;;;;;;7.95;5.28;;;;;;;;;;5111741;27;20035;-66
2023/12/07 00:38:50;;;;;;;7.43;5.07;;;;;;;;;;5110336;27;20035;-66
2023/12/07 00:41:16;;;;;;;7.72;5.03;;;;;;;;;;5110855;27;20070;-66
2023/12/07 00:43:42;;;;;;;7.53;4.43;;;;;;;;;;5091435;27;20106;-66
2023/12/07 00:46:08;;;;;;;5.13;4.28;;;;;;;;;;5111226;27;20039;-68
2023/12/07 00:48:34;;;;;;;4.93;4.30;;;;;;;;;;5111084;27;20046;-66
2023/12/07 00:51:00;;;;;;;6.10;4.82;;;;;;;;;;5111112;27;20082;-67
2023/12/07 00:53:26;;;;;;;6.88;5.00;;;;;;;;;;5092222;27;20524;-66
2023/12/07 00:55:53;;;;;;;5.80;4.55;;;;;;;;;;5110383;27;20122;-66
2023/12/07 00:58:19;;;;;;;5.78;4.80;;;;;;;;;;5110740;27;20046;-66
2023/12/07 01:00:45;;;;;;;5.38;3.95;;;;;;;;;;5110340;27;20114;-67
2023/12/07 01:03:11;;;;;;;7.72;4.90;;;;;;;;;;5090493;27;20091;-67
2023/12/07 01:05:37;;;;;;;6.28;4.05;;;;;;;;;;5110193;27;20176;-67
2023/12/07 01:08:03;;;;;;;5.88;4.20;;;;;;;;;;5109369;27;20559;-67
2023/12/07 01:10:30;;;;;;;7.32;4.57;;;;;;;;;;5089736;27;20076;-66
2023/12/07 01:12:56;;;;;;;6.20;4.95;;;;;;;;;;5108674;27;20092;-67
2023/12/07 01:15:22;;;;;;;6.28;3.80;;;;;;;;;;5109812;27;20095;-67
2023/12/07 01:17:48;;;;;;;5.97;4.03;;;;;;;;;;5110134;27;20197;-67
2023/12/07 01:20:14;;;;;;;6.57;5.45;;;;;;;;;;5110374;27;20114;-67
2023/12/07 01:22:45;;;;;;;6.38;3.85;;;;;;;;;;5109885;27;20210;-66
2023/12/07 01:25:11;;;;;;;6.43;4.47;;;;;;;;;;5109872;27;20067;-67
2023/12/07 01:27:39;;;;;;;5.93;4.45;;;;;;;;;;5109446;27;20090;-67
2023/12/07 01:30:05;;;;;;;6.35;4.72;;;;;;;;;;5110072;27;20487;-67
2023/12/07 01:32:31;;;;;;;6.78;4.03;;;;;;;;;;5110104;27;20118;-67
2023/12/07 01:34:57;;;;;;;6.32;4.10;;;;;;;;;;5110083;27;20411;-67
2023/12/07 01:37:23;;;;;;;5.47;4.18;;;;;;;;;;5109315;27;20130;-67
2023/12/07 01:39:50;;;;;;;6.20;4.43;;;;;;;;;;5108782;27;20659;-67
2023/12/07 01:42:16;;;;;;;7.90;5.15;;;;;;;;;;5072543;27;20096;-66
2023/12/07 01:44:42;;;;;;;11.05;5.45;;;;;;;;;;5108596;27;20095;-66
2023/12/07 01:47:10;;;;;;;6.47;4.78;;;;;;;;;;5108901;27;20247;-66
2023/12/07 01:49:36;;;;;;;6.03;3.90;;;;;;;;;;5090066;27;20148;-67
2023/12/07 01:52:02;;;;;;;5.03;4.00;;;;;;;;;;5089805;27;20043;-67
2023/12/07 01:54:29;;;;;;;5.30;3.40;;;;;;;;;;5108734;27;20147;-67
2023/12/07 01:56:56;;;;;;;7.70;4.63;;;;;;;;;;5088928;27;20040;-67
2023/12/07 01:59:22;;;;;;;5.68;3.90;;;;;;;;;;5108490;27;20039;-67
2023/12/07 02:01:48;;;;;;;6.38;4.60;;;;;;;;;;5088502;27;20045;-67
2023/12/07 02:04:14;;;;;;;6.88;4.18;;;;;;;;;;5108790;27;20057;-67
2023/12/07 02:06:40;;;;;;;6.43;4.03;;;;;;;;;;5108295;27;20221;-66
2023/12/07 02:09:06;;;;;;;6.68;4.22;;;;;;;;;;5087879;27;20150;-66
2023/12/07 02:11:32;;;;;;;4.85;3.85;;;;;;;;;;5105339;27;20134;-67
2023/12/07 02:13:59;;;;;;;5.10;3.50;;;;;;;;;;5088546;27;20127;-66
2023/12/07 02:16:30;;;;;;;8.55;4.88;;;;;;;;;;5107597;27;20111;-66
2023/12/07 02:19:02;;;;;;;6.03;4.13;;;;;;;;;;5104713;27;20049;-66
2023/12/07 02:21:35;;;;;;;5.50;3.80;;;;;;;;;;5087691;27;20282;-66
2023/12/07 02:24:03;;;;;;;5.60;3.70;;;;;;;;;;5108206;27;20061;-66
2023/12/07 02:26:31;;;;;;;5.07;3.60;;;;;;;;;;5108368;27;20091;-66
2023/12/07 02:28:57;;;;;;;4.25;3.65;;;;;;;;;;5104942;27;20286;-66
2023/12/07 02:31:23;;;;;;;5.53;3.65;;;;;;;;;;5086999;27;20200;-67
2023/12/07 02:33:50;;;;;;;6.30;3.97;;;;;;;;;;5107377;27;20039;-66
2023/12/07 02:36:20;;;;;;;7.18;4.03;;;;;;;;;;5107783;27;20241;-66
2023/12/07 02:38:47;;;;;;;5.15;3.85;;;;;;;;;;5107513;27;20046;-66
2023/12/07 02:41:13;;;;;;;5.10;4.00;;;;;;;;;;5107071;27;20130;-66
2023/12/07 02:43:39;;;;;;;4.95;3.63;;;;;;;;;;5108313;27;20202;-67
2023/12/07 02:46:06;;;;;;;4.88;3.97;;;;;;;;;;5107493;27;20601;-66
2023/12/07 02:48:32;;;;;;;6.43;3.47;;;;;;;;;;5087750;27;20091;-66
2023/12/07 02:50:58;;;;;;;7.28;4.00;;;;;;;;;;5071727;27;20035;-66
2023/12/07 02:53:24;;;;;;;5.07;3.70;;;;;;;;;;5106739;27;20151;-66
2023/12/07 02:55:50;;;;;;;6.35;4.13;;;;;;;;;;5106574;27;20198;-66
2023/12/07 02:58:16;;;;;;;5.60;3.55;;;;;;;;;;5107247;27;20043;-66
2023/12/07 03:00:43;;;;;;;4.22;3.10;;;;;;;;;;5107814;27;20027;-67
2023/12/07 03:03:09;;;;;;;5.47;3.95;;;;;;;;;;5107127;27;20043;-64
2023/12/07 03:05:35;;;;;;;6.38;3.38;;;;;;;;;;5107059;27;20478;-66
2023/12/07 03:08:01;;;;;;;7.22;3.85;;;;;;;;;;5088079;27;20600;-66
2023/12/07 03:10:27;;;;;;;4.10;3.33;;;;;;;;;;5106115;27;20270;-66
2023/12/07 03:12:53;;;;;;;5.85;3.20;;;;;;;;;;5106234;27;20964;-67
2023/12/07 03:15:19;;;;;;;5.57;3.63;;;;;;;;;;5105940;27;20063;-66
2023/12/07 03:17:45;;;;;;;4.55;3.72;;;;;;;;;;5106493;27;20429;-66
2023/12/07 03:20:12;;;;;;;3.60;3.00;;;;;;;;;;5105928;27;20035;-66
2023/12/07 03:22:39;;;;;;;4.60;3.35;;;;;;;;;;5106207;27;20658;-66
2023/12/07 03:25:05;;;;;;;4.45;3.22;;;;;;;;;;5086757;27;20123;-66
2023/12/07 03:27:31;;;;;;;5.00;3.40;;;;;;;;;;5105835;27;20559;-66
2023/12/07 03:29:57;;;;;;;4.20;3.47;;;;;;;;;;5088173;27;20435;-66
2023/12/07 03:32:24;;;;;;;6.30;3.55;;;;;;;;;;5107338;27;20043;-66
2023/12/07 03:34:50;;;;;;;4.28;2.97;;;;;;;;;;5106406;27;20066;-66
2023/12/07 03:37:16;;;;;;;4.82;3.67;;;;;;;;;;5106706;27;20035;-66
2023/12/07 03:39:42;;;;;;;5.28;3.83;;;;;;;;;;5087431;27;20195;-65
2023/12/07 03:42:08;;;;;;;4.82;3.28;;;;;;;;;;5107132;27;20039;-66
2023/12/07 03:44:34;;;;;;;5.93;3.10;;;;;;;;;;5087233;27;20039;-66
2023/12/07 03:47:01;;;;;;;5.32;3.63;;;;;;;;;;5106551;27;20221;-66
2023/12/07 03:49:27;;;;;;;5.63;3.78;;;;;;;;;;5086798;27;20047;-66
2023/12/07 03:51:53;;;;;;;4.95;3.00;;;;;;;;;;5087035;27;20175;-66
2023/12/07 03:54:19;;;;;;;5.53;3.10;;;;;;;;;;5081205;28;20082;-66
2023/12/07 03:56:45;;;;;;;4.60;3.53;;;;;;;;;;5106327;27;20827;-66
2023/12/07 03:59:11;;;;;;;5.38;3.65;;;;;;;;;;5106722;27;20524;-67
2023/12/07 04:01:37;;;;;;;5.53;3.50;;;;;;;;;;5106050;27;20050;-66
2023/12/07 04:04:04;;;;;;;4.63;3.03;;;;;;;;;;5107285;28;20459;-66
2023/12/07 04:06:30;;;;;;;6.22;3.40;;;;;;;;;;5106004;27;20713;-66
2023/12/07 04:09:00;;;;;;;4.47;2.90;;;;;;;;;;5106318;28;20097;-65
2023/12/07 04:11:26;;;;;;;6.30;3.65;;;;;;;;;;5105133;28;20053;-65
2023/12/07 04:13:52;;;;;;;6.82;3.58;;;;;;;;;;5106387;28;20414;-65
2023/12/07 04:16:18;;;;;;;6.35;3.55;;;;;;;;;;5086476;28;20126;-67
2023/12/07 04:18:44;;;;;;;5.03;3.33;;;;;;;;;;5107139;27;20245;-65
2023/12/07 04:21:10;;;;;;;6.85;3.35;;;;;;;;;;5106167;27;20282;-66
2023/12/07 04:23:36;;;;;;;5.80;3.83;;;;;;;;;;5106901;27;20502;-66
2023/12/07 04:26:03;;;;;;;7.70;3.88;;;;;;;;;;5106213;28;20058;-66
2023/12/07 04:28:29;;;;;;;6.57;4.15;;;;;;;;;;5106927;28;20524;-65
2023/12/07 04:30:55;;;;;;;6.97;4.32;;;;;;;;;;5107395;27;20099;-66
2023/12/07 04:33:21;;;;;;;7.80;3.38;;;;;;;;;;5107558;28;20265;-65
2023/12/07 04:35:47;;;;;;;6.28;3.20;;;;;;;;;;5105198;28;20029;-66
2023/12/07 04:38:13;;;;;;;5.93;4.00;;;;;;;;;;5105589;27;20053;-67
2023/12/07 04:40:39;;;;;;;6.20;3.55;;;;;;;;;;5104841;28;20077;-67
2023/12/07 04:43:06;;;;;;;4.40;3.30;;;;;;;;;;5106741;27;20130;-66
2023/12/07 04:45:32;;;;;;;7.05;4.20;;;;;;;;;;5086867;28;20154;-68
2023/12/07 04:48:00;;;;;;;6.15;3.88;;;;;;;;;;5106799;27;20059;-67
2023/12/07 04:50:26;;;;;;;5.32;3.80;;;;;;;;;;5105897;27;20237;-67
2023/12/07 04:52:54;;;;;;;6.07;4.07;;;;;;;;;;5105464;27;20050;-67
2023/12/07 04:55:20;;;;;;;6.53;4.03;;;;;;;;;;5104812;28;20148;-67
2023/12/07 04:57:46;;;;;;;7.00;4.28;;;;;;;;;;5086155;28;20043;-68
2023/12/07 05:00:13;;;;;;;6.82;4.97;;;;;;;;;;5104097;27;20047;-67
2023/12/07 05:02:40;;;;;;;8.07;5.15;;;;;;;;;;5105954;27;20039;-65
2023/12/07 05:05:06;;;;;;;6.68;4.50;;;;;;;;;;5105132;28;20123;-67
2023/12/07 05:07:32;;;;;;;6.68;4.30;;;;;;;;;;5086364;27;20318;-67
2023/12/07 05:09:58;;;;;;;7.07;4.88;;;;;;;;;;5106137;28;20116;-66
2023/12/07 05:12:24;;;;;;;5.00;3.95;;;;;;;;;;5105780;28;20073;-66
2023/12/07 05:14:51;;;;;;;7.05;4.40;;;;;;;;;;5106638;28;20126;-66
2023/12/07 05:17:17;;;;;;;6.85;4.20;;;;;;;;;;5106717;27;20082;-66
2023/12/07 05:19:44;;;;;;;9.15;4.18;;;;;;;;;;5110825;27;20226;-66
2023/12/07 05:22:11;;;;;;;6.22;4.60;;;;;;;;;;5109154;27;20050;-66
2023/12/07 05:24:37;;;;;;;6.40;4.55;;;;;;;;;;5105286;27;20047;-67
2023/12/07 05:27:03;;;;;;;5.43;4.30;;;;;;;;;;5107661;27;20262;-65
2023/12/07 05:29:30;;;;;;;6.57;4.22;;;;;;;;;;5108041;27;20115;-66
2023/12/07 05:31:56;;;;;;;7.13;5.45;;;;;;;;;;5108378;27;20622;-66
2023/12/07 05:34:22;;;;;;;6.65;4.50;;;;;;;;;;5108503;27;20096;-67
2023/12/07 05:36:48;;;;;;;10.77;5.88;;;;;;;;;;5108409;27;20061;-66
2023/12/07 05:39:14;;;;;;;6.47;4.40;;;;;;;;;;5103393;27;20112;-66
2023/12/07 05:41:40;;;;;;;6.63;4.40;;;;;;;;;;5085270;27;20160;-67
2023/12/07 05:44:07;;;;;;;6.88;4.53;;;;;;;;;;5106082;27;20051;-67
2023/12/07 05:46:36;;;;;;;6.05;4.18;;;;;;;;;;5106411;27;20043;-66
2023/12/07 05:49:03;;;;;;;7.03;5.32;;;;;;;;;;5106259;27;20647;-66
2023/12/07 05:51:29;;;;;;;6.70;4.43;;;;;;;;;;5105885;27;20388;-66
2023/12/07 05:53:55;;;;;;;5.15;4.32;;;;;;;;;;5105489;27;20599;-67
2023/12/07 05:56:21;;;;;;;6.47;4.53;;;;;;;;;;5104256;27;20494;-67
2023/12/07 05:58:48;;;;;;;6.53;5.20;;;;;;;;;;5105220;27;20047;-67
2023/12/07 06:01:17;;;;;;;5.28;4.28;;;;;;;;;;5106465;27;20079;-66
2023/12/07 06:03:44;;;;;;;6.45;4.45;;;;;;;;;;5106824;27;20271;-67
2023/12/07 06:06:11;;;;;;;5.05;3.72;;;;;;;;;;5106549;27;20043;-66
2023/12/07 06:08:37;;;;;;;6.25;4.90;;;;;;;;;;5106399;27;20126;-66
2023/12/07 06:11:03;;;;;;;5.88;4.28;;;;;;;;;;5105298;27;20316;-66
2023/12/07 06:13:30;;;;;;;6.75;4.72;;;;;;;;;;5106690;27;20039;-67
2023/12/07 06:15:56;;;;;;;5.40;3.97;;;;;;;;;;5106401;27;20259;-66
2023/12/07 06:18:22;;;;;;;6.03;4.25;;;;;;;;;;5105904;27;20041;-66
2023/12/07 06:20:49;;;;;;;6.45;3.90;;;;;;;;;;5106183;27;20039;-65
2023/12/07 06:23:15;;;;;;;7.25;4.80;;;;;;;;;;5106618;27;20039;-66
2023/12/07 06:25:41;;;;;;;5.88;3.88;;;;;;;;;;5068469;27;20051;-66
2023/12/07 06:28:07;;;;;;;7.05;4.30;;;;;;;;;;5106381;27;20035;-65
2023/12/07 06:30:34;;;;;;;6.68;4.07;;;;;;;;;;5106421;27;20086;-66
2023/12/07 06:33:00;;;;;;;5.93;4.13;;;;;;;;;;5106561;27;20046;-66
2023/12/07 06:35:27;;;;;;;7.13;4.68;;;;;;;;;;5105722;27;20070;-67
2023/12/07 06:37:53;;;;;;;6.07;4.63;;;;;;;;;;5106334;27;20043;-67
2023/12/07 06:40:20;;;;;;;7.32;4.50;;;;;;;;;;5104914;27;20552;-67
2023/12/07 06:42:46;;;;;;;6.90;4.72;;;;;;;;;;5106187;27;20225;-67
2023/12/07 06:45:14;;;;;;;6.88;5.20;;;;;;;;;;5104962;27;20043;-67
2023/12/07 06:47:43;;;;;;;6.90;5.00;;;;;;;;;;5084601;27;20574;-67
2023/12/07 06:50:10;;;;;;;6.05;4.97;;;;;;;;;;5104450;27;20043;-66
2023/12/07 06:52:36;;;;;;;8.15;4.80;;;;;;;;;;5102042;27;20334;-66
2023/12/07 06:55:02;;;;;;;8.55;5.43;;;;;;;;;;5102386;27;20229;-67
2023/12/07 06:57:29;;;;;;;6.40;4.50;;;;;;;;;;5085349;27;20043;-66
2023/12/07 06:59:55;;;;;;;7.28;4.95;;;;;;;;;;5104286;27;20502;-66
2023/12/07 07:02:21;;;;;;;7.25;5.03;;;;;;;;;;5086962;27;20031;-66
2023/12/07 07:04:48;;;;;;;6.82;5.20;;;;;;;;;;5086761;27;20078;-67
2023/12/07 07:07:15;;;;;;;6.53;4.85;;;;;;;;;;5105804;27;20176;-66
2023/12/07 07:09:45;;;;;;;7.10;4.65;;;;;;;;;;5106708;27;20046;-66
2023/12/07 07:12:11;;;;;;;6.65;4.95;;;;;;;;;;5107150;27;20304;-66
2023/12/07 07:14:38;;;;;;;6.60;4.88;;;;;;;;;;5107224;27;20035;-66
2023/12/07 07:17:04;;;;;;;10.25;5.65;;;;;;;;;;5106622;27;20075;-66
2023/12/07 07:19:31;;;;;;;7.75;5.32;;;;;;;;;;5107167;27;20466;-66
2023/12/07 07:22:00;;;;;;;7.93;5.63;;;;;;;;;;5107555;27;20088;-66
2023/12/07 07:24:26;;;;;;;8.02;5.93;;;;;;;;;;5106219;27;20154;-66
2023/12/07 07:26:52;;;;;;;8.82;5.60;;;;;;;;;;5107063;27;20064;-66
2023/12/07 07:29:19;;;;;;;8.77;5.05;;;;;;;;;;5087785;27;20101;-66
2023/12/07 07:31:45;;;;;;;8.02;5.50;;;;;;;;;;5107969;27;20996;-66
2023/12/07 07:34:11;;;;;;;9.50;5.97;;;;;;;;;;5107129;27;20039;-66
2023/12/07 07:36:37;;;;;;;9.88;5.30;;;;;;;;;;5106561;27;20027;-66
2023/12/07 07:39:07;;;;;;;8.50;5.68;;;;;;;;;;5086216;27;20066;-68
2023/12/07 07:41:33;;;;;;;8.27;5.50;;;;;;;;;;5105245;27;20150;-67
2023/12/07 07:43:59;;;;;;;9.00;5.78;;;;;;;;;;5106583;27;20051;-67
2023/12/07 07:46:25;;;;;;;9.98;5.57;;;;;;;;;;5107278;27;20039;-67
2023/12/07 07:48:51;;;;;;;8.75;6.00;;;;;;;;;;5106944;27;20238;-67
2023/12/07 07:51:18;;;;;;;10.63;6.25;;;;;;;;;;5107110;27;20043;-67
2023/12/07 07:53:44;;;;;;;12.63;6.43;;;;;;;;;;5107154;27;20122;-67
2023/12/07 07:56:10;;;;;;;8.60;6.05;;;;;;;;;;5101398;27;20069;-67
2023/12/07 07:58:37;;;;;;;9.65;6.40;;;;;;;;;;5104003;27;20281;-67
2023/12/07 08:01:06;;;;;;;11.32;7.22;;;;;;;;;;5104757;27;20046;-67
2023/12/07 08:03:33;;;;;;;10.40;6.72;;;;;;;;;;5104752;27;20070;-67
2023/12/07 08:05:59;;;;;;;10.85;7.45;;;;;;;;;;5104765;28;20142;-67
2023/12/07 08:08:26;;;;;;;13.32;7.72;;;;;;;;;;5101385;27;20046;-67
2023/12/07 08:10:52;;;;;;;13.05;8.70;;;;;;;;;;5103359;27;20034;-67
2023/12/07 08:13:18;;;;;;;12.40;8.95;;;;;;;;;;5105539;28;20047;-66
2023/12/07 08:15:44;;;;;;;13.15;8.75;;;;;;;;;;5084956;28;20735;-67
2023/12/07 08:18:10;;;;;;;15.45;9.90;;;;;;;;;;5105048;28;20054;-67
2023/12/07 08:20:37;;;;;;;14.38;9.63;;;;;;;;;;5104256;28;20062;-67
2023/12/07 08:23:03;;;;;;;12.68;9.93;;;;;;;;;;5105136;28;20470;-67
2023/12/07 08:25:31;;;;;;;14.10;8.77;;;;;;;;;;5084445;27;20043;-67
2023/12/07 08:27:57;;;;;;;13.45;9.93;;;;;;;;;;5105197;28;20160;-67
2023/12/07 08:30:24;;;;;;;15.18;9.52;;;;;;;;;;5104380;27;20043;-67
2023/12/07 08:32:50;;;;;;;12.73;9.30;;;;;;;;;;5105750;28;20039;-66
2023/12/07 08:35:16;;;;;;;13.32;9.85;;;;;;;;;;5104757;28;20058;-66
2023/12/07 08:37:42;;;;;;;11.32;8.30;;;;;;;;;;5085606;28;20055;-66
2023/12/07 08:40:11;;;;;;;13.90;9.38;;;;;;;;;;5102846;27;20265;-67
2023/12/07 08:42:37;;;;;;;14.15;9.75;;;;;;;;;;5085560;28;20065;-65
2023/12/07 08:45:03;;;;;;;18.25;10.32;;;;;;;;;;5107055;28;20394;-66
2023/12/07 08:47:31;;;;;;;15.23;10.10;;;;;;;;;;5106923;28;20047;-67
2023/12/07 08:49:57;;;;;;;14.63;9.57;;;;;;;;;;5100767;28;20589;-67
2023/12/07 08:52:24;;;;;;;13.82;10.45;;;;;;;;;;5107469;27;20054;-66
2023/12/07 08:54:50;;;;;;;11.88;9.55;;;;;;;;;;5107288;27;20137;-67
2023/12/07 08:57:18;;;;;;;13.85;9.38;;;;;;;;;;5107738;27;20118;-66
2023/12/07 08:59:44;;;;;;;13.73;9.55;;;;;;;;;;5108081;27;21498;-67
2023/12/07 09:02:10;;;;;;;13.40;9.65;;;;;;;;;;5108572;27;20046;-67
2023/12/07 09:04:36;;;;;;;14.45;10.05;;;;;;;;;;5083497;27;21183;-66
2023/12/07 09:07:02;;;;;;;14.20;9.77;;;;;;;;;;5102647;27;20051;-66
2023/12/07 09:09:29;;;;;;;13.15;9.38;;;;;;;;;;5108311;27;20189;-66
2023/12/07 09:11:55;;;;;;;12.55;9.00;;;;;;;;;;5107494;27;20043;-66
2023/12/07 09:14:22;;;;;;;12.95;9.05;;;;;;;;;;5107642;27;20043;-66
2023/12/07 09:16:48;;;;;;;15.40;9.35;;;;;;;;;;5107091;27;20118;-66
2023/12/07 09:19:14;;;;;;;13.50;9.38;;;;;;;;;;5107954;27;20289;-66
2023/12/07 09:21:40;;;;;;;16.52;9.18;;;;;;;;;;5070859;27;20126;-66
2023/12/07 09:24:07;;;;;;;16.00;10.57;;;;;;;;;;5108924;27;20077;-66
2023/12/07 09:26:33;;;;;;;16.95;11.18;;;;;;;;;;5107997;27;20099;-67
2023/12/07 09:28:59;;;;;;;15.30;9.30;;;;;;;;;;5108372;27;20031;-66
2023/12/07 09:31:25;;;;;;;14.75;9.85;;;;;;;;;;5090092;27;20043;-66
2023/12/07 09:33:53;;;;;;;18.60;11.10;;;;;;;;;;5109359;27;20134;-66
2023/12/07 09:36:21;;;;;;;12.45;9.40;;;;;;;;;;5109922;27;20043;-67
2023/12/07 09:38:47;;;;;;;13.82;9.77;;;;;;;;;;5108427;27;20078;-67
2023/12/07 09:41:14;;;;;;;16.38;11.18;;;;;;;;;;5108912;27;20035;-67
2023/12/07 09:43:40;;;;;;;14.18;10.38;;;;;;;;;;5109024;27;20050;-66
2023/12/07 09:46:06;;;;;;;15.07;11.15;;;;;;;;;;5108816;27;20115;-66
2023/12/07 09:48:32;;;;;;;15.52;9.27;;;;;;;;;;5110348;27;20230;-66
2023/12/07 09:51:00;;;;;;;15.80;11.30;;;;;;;;;;5057704;27;20099;-66
2023/12/07 09:53:29;;;;;;;16.38;10.50;;;;;;;;;;5108309;27;20035;-66
2023/12/07 09:55:57;;;;;;;16.15;11.65;;;;;;;;;;5107896;27;20158;-67
2023/12/07 09:58:23;;;;;;;18.70;11.90;;;;;;;;;;5109267;27;20047;-66
2023/12/07 10:00:49;;;;;;;15.15;11.50;;;;;;;;;;5107784;27;20230;-66
2023/12/07 10:03:25;;;;;;;16.30;10.43;;;;;;;;;;5107546;27;20221;-66
2023/12/07 10:06:01;;;;;;;15.57;11.52;;;;;;;;;;5108553;27;20072;-68
2023/12/07 10:08:27;;;;;;;15.98;10.70;;;;;;;;;;5089890;27;20043;-66
2023/12/07 10:11:07;;;;;;;16.33;11.15;;;;;;;;;;5105309;27;20884;-67
2023/12/07 10:13:35;;;;;;;14.52;10.43;;;;;;;;;;5106695;27;20057;-66
2023/12/07 10:16:11;;;;;;;16.08;10.23;;;;;;;;;;5105836;27;20126;-66
2023/12/07 10:18:37;;;;;;;16.35;10.88;;;3.60;99.90;;;;;;5106726;27;20038;-64
2023/12/07 10:21:03;;;;;;;13.55;9.63;;;6.40;99.90;;;;;;5106535;27;20035;-67
2023/12/07 10:23:31;;;;;;;12.27;9.68;;;6.50;99.90;;;;;;5107036;27;20354;-66
2023/12/07 10:25:59;;;;;;;15.52;10.40;;;6.60;99.90;;;;;;5107453;27;20218;-66
2023/12/07 10:28:25;;;;;;;14.68;9.77;;;6.80;99.90;;;;;;5108952;27;20244;-66
2023/12/07 10:30:51;;;;;;;16.35;10.48;;;6.90;99.90;;;;;;5108210;27;20039;-66
2023/12/07 10:33:19;;;;;;;14.35;9.98;;;7.00;99.90;;;;;;5109313;27;20303;-66
2023/12/07 10:35:45;;;;;;;12.35;9.07;;;;;;;;;;5108896;27;20252;-66
2023/12/07 10:38:12;;;;;;;12.30;9.63;;;7.20;99.90;;;;;;5108666;27;20187;-66
2023/12/07 10:40:38;;;;;;;13.85;9.82;;;7.40;99.90;;;;;;5107217;27;20047;-66
2023/12/07 10:43:08;;;;;;;16.33;9.50;;;7.60;99.90;;;;;;5108651;27;20175;-67
2023/12/07 10:45:34;;;;;;;14.30;10.18;;;7.70;99.90;;;;;;5108221;27;20348;-66
2023/12/07 10:48:06;;;;;;;16.00;10.88;;;;;;;;;;5108550;27;20088;-66
2023/12/07 10:50:37;;;;;;;14.70;10.02;;;7.90;99.90;;;;;;5087984;27;20065;-66
2023/12/07 10:53:24;;;;;;;14.73;10.45;;;;;;;;;;5106960;27;20118;-66
2023/12/07 10:55:56;;;;;;;12.57;9.65;;;8.20;99.90;;;;;;5087068;27;20051;-66
2023/12/07 10:58:25;;;;;;;14.33;9.60;;;8.60;99.90;;;;;;5105237;27;20054;-66
2023/12/07 11:00:53;;;;;;;14.48;9.77;;;8.70;99.90;;;;;;5086949;27;20644;-66
2023/12/07 11:03:22;;;;;;;13.23;8.95;;;9.00;99.90;;;;;;5088062;27;20050;-66
2023/12/07 11:05:48;;;;;;;11.48;9.15;;;9.30;99.90;;;;;;5106132;27;20039;-66
2023/12/07 11:08:20;;;;;;;14.68;10.35;;;;;;;;;;5106394;27;20039;-66
2023/12/07 11:10:53;;;;;;;11.80;9.45;;;;;;;;;;5104281;27;20039;-66
2023/12/07 11:13:31;;;;;;;10.80;8.77;;;;;;;;;;5105733;27;20041;-66
2023/12/07 11:15:58;;;;;;;12.18;7.72;;;;;;;;;;5105229;27;20434;-66
2023/12/07 11:18:28;;;;;;;9.07;7.85;;;9.60;99.90;;;;;;5107383;27;20046;-66
2023/12/07 11:20:55;;;;;;;10.15;8.13;;;;;;;;;;5086875;27;20988;-66
2023/12/07 11:23:21;;;;;;;11.63;8.25;;;12.50;99.90;;;;;;5087617;27;20198;-66
2023/12/07 11:25:48;;;;;;;9.02;6.78;;;14.70;99.90;;;;;;5085949;27;20246;-66
2023/12/07 11:28:15;;;;;;;9.35;7.70;;;;;;;;;;5106561;27;20047;-66
2023/12/07 11:30:48;;;;;;;7.57;6.35;;;15.60;99.90;;;;;;5105496;27;20079;-66
2023/12/07 11:33:15;;;;;;;8.02;6.65;;;;;;;;;;5101727;27;20113;-67
2023/12/07 11:36:00;;;;;;;13.65;7.85;;;17.30;99.10;;;;;;5107284;27;20223;-67
2023/12/07 11:38:25;;;;;;;8.05;6.45;;;18.60;96.80;;;;;;5105606;27;21061;-67
2023/12/07 11:40:51;;;;;;;8.45;6.32;;;19.10;96.90;;;;;;5108421;27;20057;-67
2023/12/07 11:43:33;;;;;;;8.93;6.22;;;;;;;;;;5110228;27;20126;-67
2023/12/07 11:45:59;;;;;;;7.53;6.13;;;;;;;;;;5110510;27;20602;-66
2023/12/07 11:48:25;;;;;;;7.07;5.43;;;19.60;96.00;;;;;;5074481;27;20977;-67
2023/12/07 11:50:58;;;;;;;7.22;6.28;;;;;;;;;;5125864;27;20489;-67
2023/12/07 11:53:29;;;;;;;9.40;6.05;;;20.80;93.90;;;;;;5112116;27;20103;-67
2023/12/07 11:56:00;;;;;;;7.10;6.03;;;21.60;91.60;;;;;;5109054;27;20142;-66
2023/12/07 11:58:30;;;;;;;6.32;5.05;;;22.00;91.30;;;;;;5108162;27;20083;-66
2023/12/07 12:00:57;;;;;;;6.75;5.50;;;22.40;90.20;;;;;;5110380;27;20046;-67
2023/12/07 12:03:28;;;;;;;6.60;4.97;;;22.70;89.60;;;;;;5091553;27;20077;-67
2023/12/07 12:05:56;;;;;;;7.00;5.75;;;23.00;87.20;;;;;;5109462;28;20102;-67
2023/12/07 12:08:22;;;;;;;9.65;5.35;;;23.20;87.00;;;;;;5108864;28;20051;-67
2023/12/07 12:10:51;;;;;;;7.85;5.90;;;23.30;85.80;;;;;;5109648;28;20073;-67
2023/12/07 12:13:17;;;;;;;7.43;5.45;;;23.30;84.50;;;;;;5109798;28;20130;-66
2023/12/07 12:15:43;;;;;;;8.13;6.18;;;23.30;83.70;;;;;;5109022;27;20042;-66
2023/12/07 12:18:09;;;;;;;7.00;4.70;;;23.30;83.00;;;;;;5123714;27;20529;-66
2023/12/07 12:20:35;;;;;;;10.02;6.40;;;23.20;82.30;;;;;;5109316;27;20301;-66
2023/12/07 12:23:01;;;;;;;6.60;4.78;;;23.30;81.70;;;;;;5109299;28;20081;-67
2023/12/07 12:25:30;;;;;;;6.13;5.00;;;23.20;81.20;;;;;;5106141;28;20041;-66
2023/12/07 12:28:03;;;;;;;8.32;5.68;;;23.20;80.60;;;;;;5109348;27;20035;-67
2023/12/07 12:30:30;;;;;;;6.85;5.22;;;23.40;78.70;;;;;;5110270;27;20110;-66
2023/12/07 12:32:56;;;;;;;5.70;5.13;;;23.50;79.50;;;;;;5091629;27;20672;-66
2023/12/07 12:35:24;;;;;;;6.85;5.97;;;23.30;79.00;;;;;;5109846;27;20621;-67
2023/12/07 12:37:50;;;;;;;5.65;5.13;;;23.20;78.50;;;;;;5090293;27;20329;-66
2023/12/07 12:40:18;;;;;;;7.75;6.18;;;22.60;77.80;;;;;;5039721;27;20138;-67
2023/12/07 12:42:48;;;;;;;6.68;5.78;;;;;;;;;;5108000;27;20043;-66
2023/12/07 12:45:15;;;;;;;7.35;6.22;;;;;;;;;;5109004;27;20116;-67
2023/12/07 12:47:43;;;;;;;7.97;6.68;;;;;;;;;;5110764;27;20068;-67
2023/12/07 12:50:09;;;;;;;9.18;6.55;;;;;;;;;;5110506;27;20328;-67
2023/12/07 12:52:36;;;;;;;8.30;6.38;;;;;;;;;;5091122;27;20122;-67
2023/12/07 12:55:03;;;;;;;9.02;6.68;;;;;;;;;;5109594;27;20525;-67
2023/12/07 12:57:29;;;;;;;8.68;6.70;;;;;;;;;;5109944;27;20135;-67
2023/12/07 12:59:55;;;;;;;10.32;7.20;;;21.70;77.50;;;;;;5109417;27;20114;-67
2023/12/07 13:02:21;;;;;;;8.18;6.90;;;;;;;;;;5109515;27;20117;-66
2023/12/07 13:04:47;;;;;;;11.02;7.72;;;;;;;;;;5090544;27;20043;-66
2023/12/07 13:07:14;;;;;;;10.45;8.00;;;;;;;;;;5109338;27;20066;-66
2023/12/07 13:09:40;;;;;;;8.77;7.40;;;;;;;;;;5109448;27;20035;-66
2023/12/07 13:12:07;;;;;;;10.35;8.60;;;;;;;;;;5109242;27;20519;-66
2023/12/07 13:14:35;;;;;;;10.73;8.40;;;;;;;;;;5082293;27;20387;-66
2023/12/07 13:17:03;;;;;;;10.15;7.95;;;;;;;;;;5107352;27;20806;-67
2023/12/07 13:19:29;;;;;;;9.00;7.63;;;;;;;;;;5107951;27;20049;-66
2023/12/07 13:21:56;;;;;;;9.52;7.88;;;;;;;;;;5090061;27;20298;-66
2023/12/07 13:24:22;;;;;;;12.05;8.80;;;;;;;;;;5108335;27;20903;-67
2023/12/07 13:26:48;;;;;;;10.38;8.20;;;;;;;;;;5108135;27;20278;-66
2023/12/07 13:29:14;;;;;;;11.43;9.32;;;;;;;;;;5108256;27;21082;-66
2023/12/07 13:31:40;;;;;;;11.10;8.27;;;;;;;;;;5108906;27;20066;-66
2023/12/07 13:34:07;;;;;;;11.10;8.73;;;;;;;;;;5107032;27;20290;-66
2023/12/07 13:36:33;;;;;;;11.57;9.32;;;;;;;;;;5109300;27;20521;-66
2023/12/07 13:39:02;;;;;;;10.52;8.60;;;;;;;;;;5108257;27;20039;-66
2023/12/07 13:41:28;;;;;;;13.02;9.85;;;;;;;;;;5108146;27;20290;-66
2023/12/07 13:43:54;;;;;;;13.82;9.45;;;;;;;;;;5089890;27;20486;-66
2023/12/07 13:46:26;;;;;;;15.55;10.52;;;;;;;;;;5108590;27;20585;-68
2023/12/07 13:48:52;;;;;;;12.27;9.40;;;;;;;;;;5090855;27;20300;-67
2023/12/07 13:51:20;;;;;;;11.13;9.30;;;;;;;;;;5109121;27;20069;-67
2023/12/07 13:53:46;;;;;;;14.18;10.88;;;;;;;;;;5109317;27;20047;-67
2023/12/07 13:56:12;;;;;;;12.27;9.45;;;;;;;;;;5108284;27;20051;-66
2023/12/07 13:58:39;;;;;;;13.13;9.32;;;;;;;;;;5108917;27;20232;-66
2023/12/07 14:01:05;;;;;;;12.95;9.15;;;;;;;;;;5107634;27;20027;-66
2023/12/07 14:03:31;;;;;;;12.55;9.45;;;;;;;;;;5109280;27;20364;-67
2023/12/07 14:05:57;;;;;;;10.50;8.50;;;;;;;;;;5103031;27;20122;-66
2023/12/07 14:08:25;;;;;;;12.75;9.95;;;;;;;;;;5108494;27;20393;-66
2023/12/07 14:10:52;;;;;;;13.05;10.15;;;;;;;;;;5107197;27;20069;-66
2023/12/07 14:13:18;;;;;;;13.32;9.10;;;;;;;;;;5108544;27;20188;-66
2023/12/07 14:15:44;;;;;;;14.15;9.30;;;;;;;;;;5105458;27;20570;-66
2023/12/07 14:18:10;;;;;;;13.18;9.75;;;;;;;;;;5086800;27;20593;-66
2023/12/07 14:20:36;;;;;;;14.75;8.55;;;;;;;;;;5105439;27;20162;-67